Time;durP1;ratioP1;P1;durP2;ratioP2;P2;SDS_P1;SDS_P2;PMS_P1;PMS_P2;Temp;Humidity;BMP_temperature;BMP_pressure;BME280_temperature;BME280_humidity;BME280_pressure;Samples;Min_cycle;Max_cycle;Signal;HPM_P1;HPM_P2
2021/10/01 00:00:59;;;;;;;;;;;7.90;86.80;;;;;;4996139;28;19906;-81
2021/10/01 00:03:24;;;;;;;;;;;8.00;86.70;;;;;;4995744;28;20302;-82
2021/10/01 00:05:50;;;;;;;;;;;8.00;86.60;;;;;;4991648;28;19906;-80
2021/10/01 00:08:16;;;;;;;;;;;7.90;86.40;;;;;;4997080;28;19912;-81
2021/10/01 00:10:41;;;;;;;;;;;7.90;86.70;;;;;;4983497;28;19905;-83
2021/10/01 00:13:07;;;;;;;;;;;7.80;86.70;;;;;;4995754;28;19905;-80
2021/10/01 00:15:33;;;;;;;;;;;7.90;86.70;;;;;;4995636;28;19906;-82
2021/10/01 00:17:59;;;;;;;;;;;7.80;86.60;;;;;;4994935;28;19937;-82
2021/10/01 00:20:24;;;;;;;;;;;7.80;86.70;;;;;;5000974;28;19910;-82
2021/10/01 00:22:50;;;;;;;;;;;7.80;86.80;;;;;;4995645;28;20019;-84
2021/10/01 00:25:16;;;;;;;;;;;7.70;86.90;;;;;;4994119;28;19921;-84
2021/10/01 00:27:42;;;;;;;;;;;7.70;86.80;;;;;;4995462;28;19906;-82
2021/10/01 00:30:08;;;;;;;;;;;7.70;86.80;;;;;;4995538;28;19906;-81
2021/10/01 00:32:33;;;;;;;;;;;7.70;87.00;;;;;;4995754;28;19906;-81
2021/10/01 00:35:01;;;;;;;;;;;7.70;87.20;;;;;;4995433;28;19912;-82
2021/10/01 00:37:27;;;;;;;;;;;7.70;87.20;;;;;;4994656;28;19913;-81
2021/10/01 00:39:53;;;;;;;;;;;7.70;87.00;;;;;;4975645;28;19906;-82
2021/10/01 00:42:19;;;;;;;;;;;7.60;87.00;;;;;;4975927;28;19996;-80
2021/10/01 00:44:45;;;;;;;;;;;7.60;87.20;;;;;;4962163;28;19914;-81
2021/10/01 00:47:11;;;;;;;;;;;7.60;87.30;;;;;;4976136;28;19994;-80
2021/10/01 00:49:36;;;;;;;;;;;7.60;87.40;;;;;;4975846;28;19961;-81
2021/10/01 00:52:02;;;;;;;;;;;7.60;87.50;;;;;;4975627;28;20440;-81
2021/10/01 00:54:28;;;;;;;;;;;7.60;87.40;;;;;;4975626;28;19953;-82
2021/10/01 00:56:54;;;;;;;;;;;7.60;87.20;;;;;;4958182;28;19913;-79
2021/10/01 00:59:20;;;;;;;;;;;7.60;87.10;;;;;;4975552;28;19953;-81
2021/10/01 01:01:45;;;;;;;;;;;7.60;87.30;;;;;;4975534;28;19914;-81
2021/10/01 01:04:11;;;;;;;;;;;7.60;87.00;;;;;;4976401;28;19961;-80
2021/10/01 01:06:40;;;;;;;;;;;7.50;86.90;;;;;;4974744;28;19949;-81
2021/10/01 01:09:24;;;;;;;;;;;7.60;87.00;;;;;;4958055;28;20363;-81
2021/10/01 01:12:08;;;;;;;;;;;7.60;86.90;;;;;;4975499;28;19906;-82
2021/10/01 01:14:42;;;;;;;;;;;7.60;86.90;;;;;;4976077;28;19906;-81
2021/10/01 01:17:12;;;;;;;;;;;7.50;86.90;;;;;;4958622;28;20318;-84
2021/10/01 01:19:56;;;;;;;;;;;7.50;86.80;;;;;;4990101;28;19913;-82
2021/10/01 01:22:40;;;;;;;;;;;7.50;87.50;;;;;;4995360;28;20346;-81
2021/10/01 01:25:24;;;;;;;;;;;7.50;86.90;;;;;;4995412;28;19911;-82
2021/10/01 01:28:07;;;;;;;;;;;7.50;86.90;;;;;;4995345;28;20007;-80
2021/10/01 01:30:36;;;;;;;;;;;7.50;86.80;;;;;;4994591;28;19906;-82
2021/10/01 01:33:03;;;;;;;;;;;7.50;86.80;;;;;;4994391;28;20345;-83
2021/10/01 01:35:34;;;;;;;;;;;7.50;86.70;;;;;;4993269;28;19906;-82
2021/10/01 01:38:21;;;;;;;;;;;7.50;86.70;;;;;;4994206;28;19917;-81
2021/10/01 01:40:51;;;;;;;;;;;7.50;86.60;;;;;;4976830;28;20454;-83
2021/10/01 01:43:16;;;;;;;;;;;7.50;86.60;;;;;;4994264;28;19922;-81
2021/10/01 01:45:43;;;;;;;;;;;7.50;86.60;;;;;;4994638;28;19905;-82
2021/10/01 01:48:09;;;;;;;;;;;7.50;86.60;;;;;;4995313;28;19910;-83
2021/10/01 01:50:36;;;;;;;;;;;7.40;86.70;;;;;;4994220;28;20251;-82
2021/10/01 01:53:03;;;;;;;;;;;7.40;86.70;;;;;;4994357;28;20008;-82
2021/10/01 01:55:29;;;;;;;;;;;7.30;86.80;;;;;;4994664;28;20004;-81
2021/10/01 01:57:55;;;;;;;;;;;7.40;86.80;;;;;;4994209;28;19906;-81
2021/10/01 02:00:21;;;;;;;;;;;7.40;86.90;;;;;;4994476;28;19905;-82
2021/10/01 02:02:48;;;;;;;;;;;7.40;86.90;;;;;;4986874;28;19914;-81
2021/10/01 02:05:14;;;;;;;;;;;7.40;86.80;;;;;;4976649;28;20002;-83
2021/10/01 02:07:42;;;;;;;;;;;7.40;86.80;;;;;;4977148;28;19906;-81
2021/10/01 02:10:09;;;;;;;;;;;7.40;87.00;;;;;;4974824;28;19906;-82
2021/10/01 02:12:35;;;;;;;;;;;7.40;87.00;;;;;;4976279;28;19929;-82
2021/10/01 02:15:01;;;;;;;;;;;7.40;87.10;;;;;;4975379;28;19969;-82
2021/10/01 02:17:32;;;;;;;;;;;7.40;87.00;;;;;;4975553;28;19914;-82
2021/10/01 02:19:59;;;;;;;;;;;7.40;87.00;;;;;;4991708;28;19905;-83
2021/10/01 02:22:26;;;;;;;;;;;7.40;87.00;;;;;;4995486;28;19917;-83
2021/10/01 02:24:51;;;;;;;;;;;7.40;87.10;;;;;;4995438;28;19910;-82
2021/10/01 02:27:37;;;;;;;;;;;7.40;87.20;;;;;;4995933;28;20317;-82
2021/10/01 02:30:12;;;;;;;;;;;7.30;87.20;;;;;;4994074;28;19914;-82
2021/10/01 02:32:39;;;;;;;;;;;7.40;87.30;;;;;;4994629;28;19913;-84
2021/10/01 02:35:07;;;;;;;;;;;7.40;87.40;;;;;;4994145;28;19910;-82
2021/10/01 02:37:33;;;;;;;;;;;7.30;87.30;;;;;;4995259;28;19925;-83
2021/10/01 02:40:00;;;;;;;;;;;7.30;87.40;;;;;;4999926;28;19929;-82
2021/10/01 02:42:27;;;;;;;;;;;7.30;87.40;;;;;;5012417;28;19909;-82
2021/10/01 02:44:53;;;;;;;;;;;7.20;87.30;;;;;;4996123;28;19956;-83
2021/10/01 02:47:20;;;;;;;;;;;7.20;87.50;;;;;;4994659;28;19912;-84
2021/10/01 02:49:46;;;;;;;;;;;7.20;87.70;;;;;;4995350;28;20334;-84
2021/10/01 02:52:21;;;;;;;;;;;7.20;87.60;;;;;;4996268;28;19906;-83
2021/10/01 02:54:52;;;;;;;;;;;7.20;87.60;;;;;;4996875;28;19968;-84
2021/10/01 02:57:23;;;;;;;;;;;7.20;87.60;;;;;;4997468;28;19941;-84
2021/10/01 02:59:51;;;;;;;;;;;7.20;87.60;;;;;;4998163;28;19922;-83
2021/10/01 03:02:19;;;;;;;;;;;7.20;87.60;;;;;;4983426;28;19906;-83
2021/10/01 03:04:46;;;;;;;;;;;7.20;87.60;;;;;;4977470;28;19925;-83
2021/10/01 03:07:13;;;;;;;;;;;7.20;87.70;;;;;;4978312;28;19913;-82
2021/10/01 03:09:40;;;;;;;;;;;7.20;87.60;;;;;;4982388;28;20313;-85
2021/10/01 03:12:06;;;;;;;;;;;7.20;87.70;;;;;;4979958;28;20005;-83
2021/10/01 03:14:32;;;;;;;;;;;7.20;87.70;;;;;;4981140;28;19906;-83
2021/10/01 03:16:58;;;;;;;;;;;7.20;87.70;;;;;;4982084;28;19917;-83
2021/10/01 03:19:24;;;;;;;;;;;7.20;87.90;;;;;;4993480;28;19906;-84
2021/10/01 03:21:52;;;;;;;;;;;7.20;87.90;;;;;;5001612;28;20333;-84
2021/10/01 03:24:19;;;;;;;;;;;7.20;87.90;;;;;;5000130;28;19960;-84
2021/10/01 03:26:45;;;;;;;;;;;7.20;87.90;;;;;;5001142;28;19909;-83
2021/10/01 03:29:11;;;;;;;;;;;7.20;87.80;;;;;;5000025;28;20028;-84
2021/10/01 03:31:37;;;;;;;;;;;7.20;87.90;;;;;;5002696;28;19906;-83
2021/10/01 03:34:03;;;;;;;;;;;7.10;87.90;;;;;;5005470;28;20017;-83
2021/10/01 03:36:28;;;;;;;;;;;7.20;88.00;;;;;;5004606;28;19906;-81
2021/10/01 03:38:55;;;;;;;;;;;7.10;87.90;;;;;;4996723;28;19917;-81
2021/10/01 03:41:21;;;;;;;;;;;7.10;88.00;;;;;;4979853;28;20007;-83
2021/10/01 03:43:46;;;;;;;;;;;7.10;88.20;;;;;;4996503;28;20322;-84
2021/10/01 03:46:12;;;;;;;;;;;7.10;88.30;;;;;;4996480;28;19913;-80
2021/10/01 03:48:38;;;;;;;;;;;7.10;88.30;;;;;;4997547;28;20286;-81
2021/10/01 03:51:04;;;;;;;;;;;7.20;88.30;;;;;;4978924;28;20325;-83
2021/10/01 03:53:29;;;;;;;;;;;7.20;88.20;;;;;;4996742;28;19912;-82
2021/10/01 03:55:55;;;;;;;;;;;7.10;88.10;;;;;;4996740;28;20004;-83
2021/10/01 03:58:21;;;;;;;;;;;7.20;88.10;;;;;;4999092;28;19906;-82
2021/10/01 04:00:46;;;;;;;;;;;7.20;88.10;;;;;;4987270;28;19952;-83
2021/10/01 04:03:13;;;;;;;;;;;7.20;88.10;;;;;;4977118;28;19914;-83
2021/10/01 04:05:39;;;;;;;;;;;7.20;88.10;;;;;;4976555;28;20367;-82
2021/10/01 04:08:11;;;;;;;;;;;7.10;88.20;;;;;;4976843;28;20065;-81
2021/10/01 04:10:37;;;;;;;;;;;7.10;88.30;;;;;;4976512;28;19909;-82
2021/10/01 04:13:04;;;;;;;;;;;7.10;88.30;;;;;;4976656;28;19944;-82
2021/10/01 04:15:29;;;;;;;;;;;7.10;88.30;;;;;;4976841;28;19913;-83
2021/10/01 04:17:55;;;;;;;;;;;7.20;88.30;;;;;;4958642;28;19910;-83
2021/10/01 04:20:21;;;;;;;;;;;7.20;88.30;;;;;;4995871;28;19996;-84
2021/10/01 04:22:47;;;;;;;;;;;7.20;88.30;;;;;;4995653;28;19913;-83
2021/10/01 04:25:12;;;;;;;;;;;7.20;88.30;;;;;;4995630;28;19905;-82
2021/10/01 04:27:38;;;;;;;;;;;7.20;88.30;;;;;;4995402;28;19906;-83
2021/10/01 04:30:04;;;;;;;;;;;7.20;88.30;;;;;;4976145;28;19961;-82
2021/10/01 04:32:31;;;;;;;;;;;7.20;88.40;;;;;;4995694;28;20359;-82
2021/10/01 04:35:03;;;;;;;;;;;7.20;88.50;;;;;;5000542;28;19960;-79
2021/10/01 04:37:29;;;;;;;;;;;7.20;88.10;;;;;;5003371;28;19909;-81
2021/10/01 04:39:54;;;;;;;;;;;7.20;88.00;;;;;;5016199;28;19975;-82
2021/10/01 04:42:20;;;;;;;;;;;7.20;88.10;;;;;;5014804;28;19905;-81
2021/10/01 04:44:46;;;;;;;;;;;7.20;88.10;;;;;;5014633;28;19914;-82
2021/10/01 04:47:11;;;;;;;;;;;7.20;88.10;;;;;;5014903;28;19913;-81
2021/10/01 04:49:37;;;;;;;;;;;7.10;88.30;;;;;;5014736;28;19912;-81
2021/10/01 04:52:03;;;;;;;;;;;7.10;88.30;;;;;;5014646;28;19909;-85
2021/10/01 04:54:29;;;;;;;;;;;7.10;88.40;;;;;;5015116;28;19905;-82
2021/10/01 04:56:55;;;;;;;;;;;7.10;88.60;;;;;;5014853;28;20348;-82
2021/10/01 04:59:20;;;;;;;;;;;7.10;88.60;;;;;;5007738;28;20335;-83
2021/10/01 05:01:46;;;;;;;;;;;7.20;88.60;;;;;;4994969;28;19906;-82
2021/10/01 05:04:12;;;;;;;;;;;7.20;88.40;;;;;;4994758;28;19913;-82
2021/10/01 05:06:37;;;;;;;;;;;7.20;88.40;;;;;;5009792;28;19937;-82
2021/10/01 05:09:04;;;;;;;;;;;7.20;88.30;;;;;;4994997;28;19948;-83
2021/10/01 05:11:29;;;;;;;;;;;7.20;88.30;;;;;;4994653;28;19922;-81
2021/10/01 05:13:55;;;;;;;;;;;7.20;88.10;;;;;;4994485;28;19905;-81
2021/10/01 05:16:21;;;;;;;;;;;7.20;88.10;;;;;;4994215;28;19910;-82
2021/10/01 05:18:46;;;;;;;;;;;7.20;88.10;;;;;;4994343;28;19916;-82
2021/10/01 05:21:12;;;;;;;;;;;7.30;88.20;;;;;;4994330;28;20385;-81
2021/10/01 05:23:38;;;;;;;;;;;7.40;88.10;;;;;;4976747;28;19913;-81
2021/10/01 05:26:03;;;;;;;;;;;7.30;87.90;;;;;;4993956;28;19910;-81
2021/10/01 05:28:29;;;;;;;;;;;7.30;88.10;;;;;;4994009;28;20363;-81
2021/10/01 05:30:55;;;;;;;;;;;7.40;88.80;;;;;;4994670;28;19909;-82
2021/10/01 05:33:20;;;;;;;;;;;7.40;88.10;;;;;;4994381;28;19912;-81
2021/10/01 05:35:46;;;;;;;;;;;7.40;87.70;;;;;;4994057;28;19910;-82
2021/10/01 05:38:12;;;;;;;;;;;7.40;87.70;;;;;;4993784;28;20389;-81
2021/10/01 05:40:39;;;;;;;;;;;7.40;87.50;;;;;;4993299;28;20000;-80
2021/10/01 05:43:05;;;;;;;;;;;7.40;87.30;;;;;;4993938;28;20317;-80
2021/10/01 05:45:30;;;;;;;;;;;7.40;87.30;;;;;;4993854;28;19906;-80
2021/10/01 05:47:56;;;;;;;;;;;7.40;87.20;;;;;;4994224;28;19906;-80
2021/10/01 05:50:24;;;;;;;;;;;7.40;87.20;;;;;;4995012;28;19948;-80
2021/10/01 05:52:53;;;;;;;;;;;7.30;87.10;;;;;;4994197;28;19906;-82
2021/10/01 05:55:19;;;;;;;;;;;7.30;87.00;;;;;;4994734;28;19944;-82
2021/10/01 05:57:45;;;;;;;;;;;7.30;86.90;;;;;;5023905;28;20094;-82
2021/10/01 06:00:10;;;;;;;;;;;7.30;86.90;;;;;;4994028;28;19906;-83
2021/10/01 06:02:36;;;;;;;;;;;7.30;86.60;;;;;;5009376;28;19984;-82
2021/10/01 06:05:02;;;;;;;;;;;7.30;86.80;;;;;;4994720;28;19906;-81
2021/10/01 06:07:28;;;;;;;;;;;7.30;86.60;;;;;;4992669;28;19906;-80
2021/10/01 06:09:53;;;;;;;;;;;7.40;86.60;;;;;;4994671;28;19906;-83
2021/10/01 06:12:19;;;;;;;;;;;7.40;86.50;;;;;;4995024;28;19910;-84
2021/10/01 06:14:45;;;;;;;;;;;7.50;86.60;;;;;;4996367;28;19910;-80
2021/10/01 06:17:12;;;;;;;;;;;7.50;86.50;;;;;;4994616;28;20326;-81
2021/10/01 06:19:41;;;;;;;;;;;7.50;86.40;;;;;;5009881;28;19906;-80
2021/10/01 06:22:07;;;;;;;;;;;7.50;86.70;;;;;;4996195;28;19969;-82
2021/10/01 06:24:32;;;;;;;;;;;7.60;86.60;;;;;;5000636;28;19952;-81
2021/10/01 06:26:58;;;;;;;;;;;7.60;86.40;;;;;;5001313;28;20354;-82
2021/10/01 06:29:24;;;;;;;;;;;7.70;86.30;;;;;;4996554;28;20318;-81
2021/10/01 06:31:49;;;;;;;;;;;7.70;86.20;;;;;;4999535;28;20290;-80
2021/10/01 06:34:15;;;;;;;;;;;7.80;86.80;;;;;;4994131;28;19992;-82
2021/10/01 06:36:41;;;;;;;;;;;7.80;86.10;;;;;;4993679;28;19910;-83
2021/10/01 06:39:07;;;;;;;;;;;7.80;85.90;;;;;;4993833;28;19924;-81
2021/10/01 06:41:33;;;;;;;;;;;7.90;86.10;;;;;;4997511;28;19910;-82
2021/10/01 06:44:01;;;;;;;;;;;7.90;86.00;;;;;;4998678;28;20047;-83
2021/10/01 08:18:22;;;;;;;;;;;8.40;82.80;;;;;;5001507;28;20467;-82
2021/10/01 08:21:43;;;;;;;;;;;8.90;80.00;;;;;;4995874;28;19912;-83
2021/10/01 08:24:10;;;;;;;;;;;8.80;80.10;;;;;;4996737;28;20012;-83
2021/10/01 08:26:35;;;;;;;;;;;8.90;80.00;;;;;;5000112;28;19906;-84
2021/10/01 08:29:01;;;;;;;;;;;8.90;79.90;;;;;;5000118;28;20381;-83
2021/10/01 08:31:28;;;;;;;;;;;9.10;80.00;;;;;;4996714;28;19996;-83
2021/10/01 08:33:53;;;;;;;;;;;9.10;79.70;;;;;;4996604;28;19956;-82
2021/10/01 08:36:19;;;;;;;;;;;9.30;79.90;;;;;;4996603;28;19906;-82
2021/10/01 08:38:45;;;;;;;;;;;9.40;79.70;;;;;;4979498;28;19992;-83
2021/10/01 08:41:12;;;;;;;;;;;9.50;79.10;;;;;;4996065;28;19906;-82
2021/10/01 08:43:39;;;;;;;;;;;9.50;78.80;;;;;;4994598;28;19914;-83
2021/10/01 08:46:05;;;;;;;;;;;9.50;78.50;;;;;;4996351;28;19923;-83
2021/10/01 08:48:31;;;;;;;;;;;9.50;78.10;;;;;;4978799;28;19952;-84
2021/10/01 08:50:57;;;;;;;;;;;9.60;78.40;;;;;;4996531;28;20329;-83
2021/10/01 08:53:23;;;;;;;;;;;9.70;77.60;;;;;;4995699;28;20009;-83
2021/10/01 08:55:49;;;;;;;;;;;9.50;76.80;;;;;;4996186;28;19906;-82
2021/10/01 08:58:15;;;;;;;;;;;9.50;76.80;;;;;;4996290;28;19909;-83
2021/10/01 09:00:41;;;;;;;;;;;9.40;77.10;;;;;;4997572;28;20270;-82
2021/10/01 09:03:07;;;;;;;;;;;9.10;76.20;;;;;;4989507;28;20294;-82
2021/10/01 09:05:33;;;;;;;;;;;9.20;76.90;;;;;;5006906;28;19913;-82
2021/10/01 09:08:18;;;;;;;;;;;9.20;76.70;;;;;;4995107;28;19905;-82
2021/10/01 09:11:01;;;;;;;;;;;9.20;77.00;;;;;;4996626;28;20215;-83
2021/10/01 09:13:27;;;;;;;;;;;9.30;76.70;;;;;;4997012;28;19913;-83
2021/10/01 09:16:01;;;;;;;;;;;9.40;76.50;;;;;;5010626;28;20359;-82
2021/10/01 09:18:27;;;;;;;;;;;9.50;76.80;;;;;;5010024;28;19996;-82
2021/10/01 09:21:03;;;;;;;;;;;9.50;76.40;;;;;;4994984;28;19906;-84
2021/10/01 09:23:29;;;;;;;;;;;9.40;76.50;;;;;;4995047;28;19917;-83
2021/10/01 09:26:10;;;;;;;;;;;9.40;76.90;;;;;;4995164;28;19910;-83
2021/10/01 09:28:48;;;;;;;;;;;9.40;76.20;;;;;;4996347;28;19941;-84
2021/10/01 09:31:30;;;;;;;;;;;9.30;76.10;;;;;;4997025;28;19912;-83
2021/10/01 09:33:56;;;;;;;;;;;9.20;75.90;;;;;;4996161;28;19906;-83
2021/10/01 09:36:22;;;;;;;;;;;9.10;76.10;;;;;;4997601;28;19906;-82
2021/10/01 09:38:48;;;;;;;;;;;9.10;76.20;;;;;;4997373;28;20000;-82
2021/10/01 09:41:15;;;;;;;;;;;8.90;76.10;;;;;;4995369;28;19906;-85
2021/10/01 09:43:41;;;;;;;;;;;8.80;76.40;;;;;;4997214;28;19913;-83
2021/10/01 09:46:09;;;;;;;;;;;8.80;76.90;;;;;;4995651;28;20270;-84
2021/10/01 09:48:35;;;;;;;;;;;8.90;77.00;;;;;;4994437;28;20008;-83
2021/10/01 09:51:15;;;;;;;;;;;8.90;76.90;;;;;;4993113;28;20312;-83
2021/10/01 09:53:52;;;;;;;;;;;8.90;76.60;;;;;;4994122;28;19909;-83
2021/10/01 09:56:28;;;;;;;;;;;8.90;76.70;;;;;;4996344;28;19910;-83
2021/10/01 09:59:03;;;;;;;;;;;9.00;76.90;;;;;;4995298;28;19968;-85
2021/10/01 10:01:28;;;;;;;;;;;9.10;76.80;;;;;;4977580;28;20401;-83
2021/10/01 10:03:54;;;;;;;;;;;9.00;76.80;;;;;;4993802;28;19917;-83
2021/10/01 10:06:20;;;;;;;;;;;9.10;77.20;;;;;;4994464;28;19909;-82
2021/10/01 10:08:46;;;;;;;;;;;9.20;77.20;;;;;;4994370;28;20374;-83
2021/10/01 10:11:13;;;;;;;;;;;9.30;77.00;;;;;;4994387;28;19949;-84
2021/10/01 10:13:52;;;;;;;;;;;9.40;76.70;;;;;;4994235;28;19933;-84
2021/10/01 10:16:21;;;;;;;;;;;9.20;76.20;;;;;;4998779;28;19949;-83
2021/10/01 10:18:48;;;;;;;;;;;9.00;76.10;;;;;;4998513;28;19905;-81
2021/10/01 10:21:14;;;;;;;;;;;8.90;76.60;;;;;;4982869;28;19916;-83
2021/10/01 10:23:40;;;;;;;;;;;8.90;76.90;;;;;;5003239;28;19913;-84
2021/10/01 10:26:07;;;;;;;;;;;8.90;77.00;;;;;;5000967;28;19913;-83
2021/10/01 10:28:33;;;;;;;;;;;9.00;77.40;;;;;;4999310;28;19913;-85
2021/10/01 10:30:59;;;;;;;;;;;9.00;77.10;;;;;;4999748;28;20012;-82
2021/10/01 10:33:44;;;;;;;;;;;9.00;77.20;;;;;;4998605;28;19906;-83
2021/10/01 10:36:26;;;;;;;;;;;8.90;76.90;;;;;;4998488;28;19935;-83
2021/10/01 10:38:52;;;;;;;;;;;8.90;77.00;;;;;;4999299;28;19917;-82
2021/10/01 10:41:25;;;;;;;;;;;9.00;77.10;;;;;;4998802;28;20314;-84
2021/10/01 10:43:50;;;;;;;;;;;9.00;76.90;;;;;;4998767;28;19914;-83
2021/10/01 10:46:34;;;;;;;;;;;9.00;76.90;;;;;;4998040;28;19912;-84
2021/10/01 10:49:21;;;;;;;;;;;8.80;76.80;;;;;;4980890;28;19913;-84
2021/10/01 10:52:11;;;;;;;;;;;8.80;77.30;;;;;;4998234;28;19913;-83
2021/10/01 10:54:42;;;;;;;;;;;8.90;77.50;;;;;;4998510;28;20001;-80
2021/10/01 10:57:17;;;;;;;;;;;8.90;77.00;;;;;;5000312;28;19913;-83
2021/10/01 10:59:42;;;;;;;;;;;9.00;77.10;;;;;;4997743;28;20359;-82
2021/10/01 11:02:35;;;;;;;;;;;8.90;76.80;;;;;;4997881;28;19913;-83
2021/10/01 11:05:21;;;;;;;;;;;8.90;77.20;;;;;;4996551;28;19936;-86
2021/10/01 11:07:47;;;;;;;;;;;9.00;77.40;;;;;;4997560;28;20359;-82
2021/10/01 11:10:31;;;;;;;;;;;8.90;77.10;;;;;;4998498;28;19996;-83
2021/10/01 11:13:17;;;;;;;;;;;9.00;77.40;;;;;;4998606;28;19913;-85
2021/10/01 11:15:44;;;;;;;;;;;9.00;77.20;;;;;;4999264;28;19906;-83
2021/10/01 11:18:10;;;;;;;;;;;8.90;77.20;;;;;;5000298;28;20248;-82
2021/10/01 11:20:37;;;;;;;;;;;9.00;77.40;;;;;;4998016;28;19913;-83
2021/10/01 11:23:12;;;;;;;;;;;9.00;77.10;;;;;;4998582;28;20286;-84
2021/10/01 11:25:43;;;;;;;;;;;9.00;77.10;;;;;;4997412;28;19906;-83
2021/10/01 11:28:09;;;;;;;;;;;8.90;77.00;;;;;;4979731;28;19906;-83
2021/10/01 11:30:37;;;;;;;;;;;8.80;77.20;;;;;;4995345;28;19916;-83
2021/10/01 11:33:07;;;;;;;;;;;8.90;77.50;;;;;;4997234;28;20279;-85
2021/10/01 11:35:33;;;;;;;;;;;8.90;77.20;;;;;;4997738;28;19960;-84
2021/10/01 11:37:59;;;;;;;;;;;8.90;77.00;;;;;;4997280;28;20267;-84
2021/10/01 11:40:29;;;;;;;;;;;8.80;77.10;;;;;;4997883;28;19909;-83
2021/10/01 11:42:58;;;;;;;;;;;8.80;77.20;;;;;;4997619;28;20370;-85
2021/10/01 11:45:28;;;;;;;;;;;8.80;77.10;;;;;;4979682;28;19918;-82
2021/10/01 11:47:53;;;;;;;;;;;8.80;77.10;;;;;;4995776;28;20267;-84
2021/10/01 11:50:27;;;;;;;;;;;8.90;77.30;;;;;;4979832;28;19912;-81
2021/10/01 11:52:54;;;;;;;;;;;8.80;77.20;;;;;;4960486;28;19906;-84
2021/10/01 11:55:19;;;;;;;;;;;8.90;77.30;;;;;;4978232;28;19992;-82
2021/10/01 11:57:46;;;;;;;;;;;8.80;77.60;;;;;;4979389;28;19996;-83
2021/10/01 12:00:22;;;;;;;;;;;8.90;77.30;;;;;;4978000;28;20009;-82
2021/10/01 12:02:48;;;;;;;;;;;8.90;76.90;;;;;;4977700;28;19974;-83
2021/10/01 12:05:18;;;;;;;;;;;8.70;76.90;;;;;;4977596;28;19921;-83
2021/10/01 12:07:48;;;;;;;;;;;8.70;76.80;;;;;;4979099;28;19913;-86
2021/10/01 12:10:13;;;;;;;;;;;8.60;77.20;;;;;;4976621;28;19906;-85
2021/10/01 12:12:58;;;;;;;;;;;8.60;77.30;;;;;;4978483;28;19953;-82
2021/10/01 12:15:38;;;;;;;;;;;8.60;77.40;;;;;;4977370;28;20330;-83
2021/10/01 12:18:08;;;;;;;;;;;8.60;77.60;;;;;;4978412;28;19920;-83
2021/10/01 12:20:45;;;;;;;;;;;8.60;77.60;;;;;;4980432;28;20008;-83
2021/10/01 12:23:21;;;;;;;;;;;8.60;77.70;;;;;;4986157;28;19936;-84
2021/10/01 12:25:47;;;;;;;;;;;8.70;77.70;;;;;;4997844;28;19913;-83
2021/10/01 12:28:13;;;;;;;;;;;8.80;77.60;;;;;;4996057;28;19906;-82
2021/10/01 12:30:39;;;;;;;;;;;8.80;77.40;;;;;;4979468;28;19905;-83
2021/10/01 12:33:05;;;;;;;;;;;8.90;77.40;;;;;;4998280;28;19914;-82
2021/10/01 12:35:31;;;;;;;;;;;8.90;77.20;;;;;;4982601;28;20351;-82
2021/10/01 12:37:56;;;;;;;;;;;8.80;77.20;;;;;;4996572;28;20001;-85
2021/10/01 12:40:22;;;;;;;;;;;8.80;77.30;;;;;;4996083;28;19953;-83
2021/10/01 12:42:52;;;;;;;;;;;8.70;77.20;;;;;;4996418;28;19929;-82
2021/10/01 12:45:19;;;;;;;;;;;8.70;77.20;;;;;;4995726;28;19910;-83
2021/10/01 12:47:47;;;;;;;;;;;8.70;77.20;;;;;;4995425;28;19912;-83
2021/10/01 12:50:14;;;;;;;;;;;8.60;77.00;;;;;;4996877;28;19906;-84
2021/10/01 12:52:42;;;;;;;;;;;8.60;77.20;;;;;;4975312;28;19913;-82
2021/10/01 12:55:07;;;;;;;;;;;8.60;77.30;;;;;;4975860;28;19912;-84
2021/10/01 12:57:39;;;;;;;;;;;8.60;77.30;;;;;;4976588;28;19993;-83
2021/10/01 13:00:05;;;;;;;;;;;8.60;77.10;;;;;;4975997;28;19917;-84
2021/10/01 13:02:34;;;;;;;;;;;8.60;77.30;;;;;;4976771;28;20375;-83
2021/10/01 13:05:02;;;;;;;;;;;8.60;77.20;;;;;;4990505;28;19937;-83
2021/10/01 13:07:31;;;;;;;;;;;8.50;77.40;;;;;;4991079;28;20327;-83
2021/10/01 13:10:02;;;;;;;;;;;8.50;77.40;;;;;;4976355;28;19906;-83
2021/10/01 13:12:35;;;;;;;;;;;8.50;77.50;;;;;;4976855;28;19929;-82
2021/10/01 13:15:08;;;;;;;;;;;8.50;77.60;;;;;;4976022;28;19961;-82
2021/10/01 13:17:33;;;;;;;;;;;8.50;77.60;;;;;;4977005;28;19956;-82
2021/10/01 13:19:59;;;;;;;;;;;8.60;77.80;;;;;;4996680;28;20286;-83
2021/10/01 13:22:25;;;;;;;;;;;8.60;77.70;;;;;;4996038;28;19996;-84
2021/10/01 13:24:55;;;;;;;;;;;8.60;77.80;;;;;;4977670;28;20030;-83
2021/10/01 13:27:20;;;;;;;;;;;8.60;77.70;;;;;;4995252;28;19906;-82
2021/10/01 13:29:46;;;;;;;;;;;8.50;77.80;;;;;;5001842;28;19906;-82
2021/10/01 13:32:12;;;;;;;;;;;8.50;77.80;;;;;;5003619;28;19905;-84
2021/10/01 13:34:38;;;;;;;;;;;8.40;77.70;;;;;;4985481;28;19956;-83
2021/10/01 13:37:04;;;;;;;;;;;8.40;77.70;;;;;;4996219;28;19910;-83
2021/10/01 13:39:29;;;;;;;;;;;8.40;77.90;;;;;;4994910;28;20370;-83
2021/10/01 13:41:55;;;;;;;;;;;8.40;78.10;;;;;;4994979;28;19906;-84
2021/10/01 13:44:21;;;;;;;;;;;8.40;78.00;;;;;;4994357;28;19920;-83
2021/10/01 13:46:46;;;;;;;;;;;8.40;78.00;;;;;;4995187;28;19913;-84
2021/10/01 13:49:12;;;;;;;;;;;8.40;77.90;;;;;;4982119;28;19905;-84
2021/10/01 13:51:38;;;;;;;;;;;8.40;77.90;;;;;;4994626;28;20367;-84
2021/10/01 13:54:03;;;;;;;;;;;8.30;77.70;;;;;;4994251;28;19953;-83
2021/10/01 13:56:29;;;;;;;;;;;8.10;77.90;;;;;;4994537;28;19910;-85
2021/10/01 13:58:54;;;;;;;;;;;8.00;78.10;;;;;;4994527;28;20357;-83
2021/10/01 14:01:20;;;;;;;;;;;8.10;78.30;;;;;;5010654;28;19960;-85
2021/10/01 14:03:46;;;;;;;;;;;8.00;78.40;;;;;;4994716;28;19968;-81
2021/10/01 14:06:11;;;;;;;;;;;8.00;78.30;;;;;;4994632;28;19992;-83
2021/10/01 14:08:37;;;;;;;;;;;8.00;78.30;;;;;;4995272;28;19997;-83
2021/10/01 14:11:03;;;;;;;;;;;7.90;78.50;;;;;;4994115;28;19905;-85
2021/10/01 14:13:28;;;;;;;;;;;7.90;78.80;;;;;;4995114;28;19929;-82
2021/10/01 14:15:54;;;;;;;;;;;7.90;79.00;;;;;;4996262;28;20355;-83
2021/10/01 14:18:20;;;;;;;;;;;7.90;79.10;;;;;;4995181;28;20310;-82
2021/10/01 14:20:45;;;;;;;;;;;7.80;79.10;;;;;;5001425;28;19937;-82
2021/10/01 14:23:11;;;;;;;;;;;7.80;79.40;;;;;;4996533;28;19913;-83
2021/10/01 14:25:38;;;;;;;;;;;7.80;79.40;;;;;;4998136;28;19906;-82
2021/10/01 14:28:04;;;;;;;;;;;7.80;79.60;;;;;;4994016;28;20353;-82
2021/10/01 14:30:32;;;;;;;;;;;7.80;79.50;;;;;;4995088;28;19913;-83
2021/10/01 14:32:58;;;;;;;;;;;7.70;79.60;;;;;;4994366;28;20326;-83
2021/10/01 14:35:24;;;;;;;;;;;7.80;79.90;;;;;;4995015;28;19933;-83
2021/10/01 14:37:50;;;;;;;;;;;7.70;79.90;;;;;;4994347;28;19917;-83
2021/10/01 14:40:16;;;;;;;;;;;7.70;80.20;;;;;;4995391;28;19997;-83
2021/10/01 14:42:42;;;;;;;;;;;7.70;80.40;;;;;;4994351;28;19906;-83
2021/10/01 14:45:08;;;;;;;;;;;7.70;80.70;;;;;;4994224;28;19921;-84
2021/10/01 14:47:34;;;;;;;;;;;7.60;80.70;;;;;;4991474;28;20425;-84
2021/10/01 14:50:01;;;;;;;;;;;7.60;80.70;;;;;;4975225;28;19914;-83
2021/10/01 14:52:27;;;;;;;;;;;7.60;80.80;;;;;;4973420;28;20044;-84
2021/10/01 14:54:53;;;;;;;;;;;7.50;80.80;;;;;;4975401;28;19938;-84
2021/10/01 14:57:19;;;;;;;;;;;7.50;80.70;;;;;;4975268;28;19913;-83
2021/10/01 14:59:44;;;;;;;;;;;7.50;80.80;;;;;;4976426;28;20286;-84
2021/10/01 15:02:11;;;;;;;;;;;7.50;80.90;;;;;;4977397;28;19928;-84
2021/10/01 15:04:37;;;;;;;;;;;7.40;81.10;;;;;;4979014;28;19928;-84
2021/10/01 15:07:03;;;;;;;;;;;7.30;81.20;;;;;;5010521;28;19928;-83
2021/10/01 15:09:28;;;;;;;;;;;7.20;81.30;;;;;;4996456;28;19906;-83
2021/10/01 15:11:54;;;;;;;;;;;7.20;81.40;;;;;;4978805;28;19957;-83
2021/10/01 15:14:20;;;;;;;;;;;7.10;81.70;;;;;;5010062;28;20360;-82
2021/10/01 15:16:46;;;;;;;;;;;7.10;82.30;;;;;;4978787;28;19906;-83
2021/10/01 15:19:12;;;;;;;;;;;7.10;82.30;;;;;;4988290;28;19940;-83
2021/10/01 15:21:37;;;;;;;;;;;7.10;82.30;;;;;;4996671;28;19949;-84
2021/10/01 15:24:03;;;;;;;;;;;7.10;82.50;;;;;;4979986;28;19968;-83
2021/10/01 15:26:29;;;;;;;;;;;7.10;82.40;;;;;;4997570;28;19906;-83
2021/10/01 15:28:54;;;;;;;;;;;7.10;82.40;;;;;;4998112;28;20004;-83
2021/10/01 15:31:20;;;;;;;;;;;7.20;82.30;;;;;;4996992;28;19988;-84
2021/10/01 15:33:46;;;;;;;;;;;7.10;82.30;;;;;;4997860;28;19906;-82
2021/10/01 15:36:12;;;;;;;;;;;7.10;82.40;;;;;;4998765;28;20399;-82
2021/10/01 15:38:37;;;;;;;;;;;7.10;82.50;;;;;;4998351;28;19925;-83
2021/10/01 15:41:05;;;;;;;;;;;7.10;82.60;;;;;;4987651;28;19890;-85
2021/10/01 15:43:30;;;;;;;;;;;7.10;82.80;;;;;;4984721;28;19964;-84
2021/10/01 15:45:57;;;;;;;;;;;7.00;82.70;;;;;;5000652;28;19906;-81
2021/10/01 15:48:23;;;;;;;;;;;7.00;82.90;;;;;;5001372;28;19935;-83
2021/10/01 15:50:49;;;;;;;;;;;6.90;83.00;;;;;;4996519;28;19906;-84
2021/10/01 15:53:15;;;;;;;;;;;6.90;83.20;;;;;;4996674;28;19906;-84
2021/10/01 15:55:40;;;;;;;;;;;6.90;83.30;;;;;;4996890;28;20313;-83
2021/10/01 15:58:07;;;;;;;;;;;6.80;83.40;;;;;;4997094;28;19953;-84
2021/10/01 16:00:38;;;;;;;;;;;6.80;83.70;;;;;;4997705;28;19905;-83
2021/10/01 16:03:08;;;;;;;;;;;6.80;83.70;;;;;;4997113;28;20008;-85
2021/10/01 16:05:33;;;;;;;;;;;6.80;83.80;;;;;;4997802;28;19995;-84
2021/10/01 16:07:59;;;;;;;;;;;6.80;83.90;;;;;;4999176;28;20355;-83